Animas, New Mexico
Current Conditions -  °F | °C
As of 12:35 AM on Sunday 23 Nov 2014 (Local Time) from KLSB Reporting Station
Clear Clear  
Wind Chill: 37°   Ceiling: Unl
Heat Index: 43°   Visibility: 10mi
Dew Point: 19°   Wind: 9mph
Humidity: 39%   Direction: 270°W
Pressure: 29.98"   Gusts: NA
Location:  31.95°N, 108.81°W
Report Text: KLSB 230735Z AUTO 27008KT 10SM CLR 06/M07 A2998 RMK AO2
Loading
Personal Weather Stations






























Interactive Weather Map New forecast layout! Learn more

10-Day Weather Forecast

Advertisements
Track Severe Weather on mobile